createdAt,value
2022-07-25T00:04:44.131Z,27.40
2022-07-25T00:09:46.822Z,27.50
2022-07-25T00:14:49.440Z,27.30
2022-07-25T00:19:52.169Z,27.10
2022-07-25T00:24:54.631Z,27.20
2022-07-25T00:29:57.302Z,27.00
2022-07-25T00:34:59.761Z,27.00
2022-07-25T00:40:02.487Z,27.00
2022-07-25T00:45:05.857Z,26.90
2022-07-25T00:50:08.774Z,27.00
2022-07-25T00:55:12.131Z,27.00
2022-07-25T01:00:15.745Z,27.00
2022-07-25T01:05:18.376Z,27.00
2022-07-25T01:10:20.889Z,27.00
2022-07-25T01:15:24.594Z,27.10
2022-07-25T01:20:28.937Z,26.90
2022-07-25T01:25:31.512Z,26.90
2022-07-25T01:30:34.082Z,27.00
2022-07-25T01:35:41.513Z,27.00
2022-07-25T01:40:47.006Z,26.90
2022-07-25T01:45:49.599Z,26.90
2022-07-25T01:50:52.231Z,27.10
2022-07-25T01:55:54.973Z,26.90
2022-07-25T02:01:00.318Z,26.80
2022-07-25T02:06:06.110Z,26.80
2022-07-25T02:11:08.834Z,26.80
2022-07-25T02:16:11.905Z,26.70
2022-07-25T02:21:14.826Z,26.50
2022-07-25T02:26:17.573Z,26.40
2022-07-25T02:31:20.089Z,26.10
2022-07-25T02:36:22.861Z,26.10
2022-07-25T02:41:25.436Z,26.40
2022-07-25T02:46:27.916Z,26.50
2022-07-25T02:51:30.511Z,26.50
2022-07-25T02:56:33.295Z,26.50
2022-07-25T03:01:36.111Z,26.30
2022-07-25T03:06:38.960Z,26.10
2022-07-25T03:11:41.434Z,25.90
2022-07-25T03:16:43.866Z,25.70
2022-07-25T03:21:46.603Z,25.90
2022-07-25T03:26:49.142Z,26.10
2022-07-25T03:31:51.651Z,26.10
2022-07-25T03:36:54.066Z,26.10
2022-07-25T03:41:56.774Z,26.00
2022-07-25T03:46:59.326Z,25.60
2022-07-25T03:52:01.950Z,25.30
2022-07-25T03:57:05.461Z,25.20
2022-07-25T04:02:08.128Z,25.10
2022-07-25T04:07:10.672Z,25.00
2022-07-25T04:12:13.281Z,24.80
2022-07-25T04:17:15.819Z,24.80
2022-07-25T04:22:18.538Z,24.90
2022-07-25T04:27:20.925Z,24.80
2022-07-25T04:32:23.805Z,24.90
2022-07-25T04:37:26.601Z,25.60
2022-07-25T04:42:29.381Z,25.60
2022-07-25T04:47:32.369Z,26.00
2022-07-25T04:52:35.066Z,26.20
2022-07-25T04:57:38.178Z,26.10
2022-07-25T05:02:40.929Z,26.10
2022-07-25T05:07:43.433Z,26.20
2022-07-25T05:12:46.175Z,26.60
2022-07-25T05:17:48.753Z,26.90
2022-07-25T05:22:51.789Z,26.70
2022-07-25T05:27:55.839Z,26.70
2022-07-25T05:32:58.421Z,26.70
2022-07-25T05:38:00.961Z,26.40
2022-07-25T05:43:03.859Z,26.60
2022-07-25T05:48:06.709Z,26.20
2022-07-25T05:53:09.337Z,26.80
2022-07-25T05:58:11.722Z,27.10
2022-07-25T06:03:14.281Z,27.40
2022-07-25T06:08:17.284Z,27.40
2022-07-25T06:13:20.858Z,27.40
2022-07-25T06:18:24.438Z,27.30
2022-07-25T06:23:27.727Z,27.00
2022-07-25T06:28:30.770Z,26.80
2022-07-25T06:33:33.180Z,26.70
2022-07-25T06:38:35.560Z,26.70
2022-07-25T06:43:38.194Z,26.70
2022-07-25T06:48:40.949Z,26.70
2022-07-25T06:53:43.795Z,26.80
2022-07-25T06:58:46.719Z,27.00
2022-07-25T07:03:49.334Z,27.40
2022-07-25T07:08:51.811Z,27.50
2022-07-25T07:13:54.628Z,27.60
2022-07-25T07:18:57.736Z,27.80
2022-07-25T07:24:00.501Z,27.70
2022-07-25T07:29:04.172Z,27.50
2022-07-25T07:34:07.395Z,27.40
2022-07-25T07:39:09.995Z,27.50
2022-07-25T07:44:12.777Z,27.60
2022-07-25T07:49:15.707Z,27.50
2022-07-25T07:54:36.831Z,27.40
2022-07-25T07:59:39.356Z,27.30
2022-07-25T08:04:41.773Z,27.20
2022-07-25T08:09:44.453Z,26.90
2022-07-25T08:14:46.982Z,26.60
2022-07-25T08:19:49.374Z,26.60
2022-07-25T08:24:51.829Z,26.50
2022-07-25T08:29:54.240Z,26.60
2022-07-25T08:34:57.367Z,26.50
2022-07-25T08:39:59.814Z,26.80
2022-07-25T08:45:05.992Z,27.10
2022-07-25T08:50:13.444Z,27.20
2022-07-25T08:55:20.108Z,27.40
2022-07-25T09:00:26.419Z,27.30
2022-07-25T09:05:31.882Z,27.60
2022-07-25T09:10:35.981Z,27.80
2022-07-25T09:15:41.388Z,27.70
2022-07-25T09:20:46.962Z,27.80
2022-07-25T09:25:49.580Z,27.70
2022-07-25T09:30:56.967Z,27.70
2022-07-25T09:35:59.437Z,27.50
2022-07-25T09:41:03.153Z,27.40
2022-07-25T09:46:07.107Z,27.40
2022-07-25T09:51:09.738Z,27.40
2022-07-25T09:56:12.180Z,27.30
2022-07-25T10:01:22.523Z,27.20
2022-07-25T10:06:28.605Z,27.30
2022-07-25T10:11:31.848Z,27.10
2022-07-25T10:16:48.436Z,27.00
2022-07-25T10:21:57.282Z,27.10
2022-07-25T10:27:08.758Z,27.40
2022-07-25T10:32:12.731Z,27.50
2022-07-25T10:37:18.113Z,27.60
2022-07-25T10:42:25.263Z,27.70
2022-07-25T10:47:28.475Z,27.60
2022-07-25T10:52:31.878Z,27.80
2022-07-25T10:57:34.539Z,28.20
2022-07-25T11:02:37.425Z,28.40
2022-07-25T11:08:20.265Z,28.60
2022-07-25T11:13:19.021Z,28.90
2022-07-25T11:18:34.792Z,29.30
2022-07-25T11:23:37.318Z,29.20
2022-07-25T11:28:44.165Z,29.40
2022-07-25T11:33:49.704Z,29.30
2022-07-25T11:38:52.277Z,29.30
2022-07-25T11:43:55.095Z,29.80
2022-07-25T11:49:05.945Z,29.90
2022-07-25T11:54:11.239Z,30.10
2022-07-25T11:59:14.131Z,30.00
2022-07-25T12:04:18.842Z,29.70
2022-07-25T12:09:22.445Z,29.70
2022-07-25T12:14:24.842Z,30.00
2022-07-25T12:19:27.257Z,30.20
2022-07-25T12:24:29.676Z,30.20
2022-07-25T12:29:32.161Z,30.10
2022-07-25T12:34:34.812Z,30.00
2022-07-25T12:39:37.279Z,30.50
2022-07-25T12:44:40.094Z,30.70
2022-07-25T12:49:42.575Z,31.20
2022-07-25T12:54:45.353Z,31.00
2022-07-25T12:59:47.871Z,31.20
2022-07-25T13:04:50.334Z,31.70
2022-07-25T13:09:53.048Z,31.10
2022-07-25T13:14:55.828Z,31.00
2022-07-25T13:19:58.378Z,31.10
2022-07-25T13:25:00.929Z,30.80
2022-07-25T13:30:04.169Z,30.70
2022-07-25T13:35:06.967Z,30.70
2022-07-25T13:40:10.168Z,30.60
2022-07-25T13:45:12.627Z,30.00
2022-07-25T13:50:15.118Z,30.00
2022-07-25T13:55:19.432Z,30.30
2022-07-25T14:00:22.413Z,29.80
2022-07-25T14:05:25.148Z,29.90
2022-07-25T14:10:27.911Z,29.90
2022-07-25T14:15:30.868Z,29.20
2022-07-25T14:20:33.299Z,28.70
2022-07-25T14:25:36.143Z,28.70
2022-07-25T14:30:38.808Z,28.50
2022-07-25T14:35:41.266Z,28.10
2022-07-25T14:40:44.085Z,28.00
2022-07-25T14:45:46.540Z,27.90
2022-07-25T14:50:49.047Z,27.60
2022-07-25T14:55:51.505Z,27.50
2022-07-25T15:00:54.519Z,27.60
2022-07-25T15:05:57.616Z,27.40
2022-07-25T15:11:00.157Z,27.40
2022-07-25T15:16:05.049Z,27.50
2022-07-25T15:21:07.525Z,27.80
2022-07-25T15:26:12.690Z,27.90
2022-07-25T15:31:15.144Z,28.00
2022-07-25T15:36:19.656Z,27.90
2022-07-25T15:41:22.283Z,27.80
2022-07-25T15:46:24.742Z,27.60
2022-07-25T15:51:27.305Z,27.40
2022-07-25T15:56:29.792Z,27.20
2022-07-25T16:01:32.291Z,26.90
2022-07-25T16:06:35.006Z,26.90
2022-07-25T16:11:38.843Z,26.80
2022-07-25T16:16:41.411Z,26.80
2022-07-25T16:21:44.348Z,26.80
2022-07-25T16:26:48.151Z,26.80
2022-07-25T16:31:52.025Z,26.90
2022-07-25T16:36:57.488Z,26.40
2022-07-25T16:42:00.000Z,26.70
2022-07-25T16:47:03.512Z,26.80
2022-07-25T16:52:06.301Z,26.90
2022-07-25T16:57:09.132Z,26.80
2022-07-25T17:02:11.628Z,26.90
2022-07-25T17:07:14.926Z,27.00
2022-07-25T17:12:18.799Z,26.80
2022-07-25T17:17:21.391Z,26.80
2022-07-25T17:22:23.854Z,26.70
2022-07-25T17:27:26.755Z,26.80
2022-07-25T17:32:30.413Z,26.80
2022-07-25T17:37:33.241Z,26.60
2022-07-25T17:42:35.845Z,26.50
2022-07-25T17:47:38.609Z,26.40
2022-07-25T17:52:41.232Z,26.60
2022-07-25T17:57:44.053Z,26.30
2022-07-25T18:02:46.603Z,26.30
2022-07-25T18:07:52.416Z,26.40
2022-07-25T18:12:55.269Z,26.20
2022-07-25T18:17:58.414Z,26.20
2022-07-25T18:23:05.719Z,26.10
2022-07-25T18:28:08.866Z,25.70
2022-07-25T18:33:12.223Z,25.80
2022-07-25T18:38:14.674Z,25.80
2022-07-25T18:43:17.445Z,25.60
2022-07-25T18:48:21.707Z,25.60
2022-07-25T18:53:26.238Z,25.80
2022-07-25T18:58:29.730Z,25.70
2022-07-25T19:03:34.993Z,25.20
2022-07-25T19:08:38.103Z,25.30
2022-07-25T19:13:49.917Z,25.30
2022-07-25T19:18:53.230Z,25.30
2022-07-25T19:23:55.864Z,25.10
2022-07-25T19:28:58.835Z,25.00
2022-07-25T19:34:01.561Z,24.70
2022-07-25T19:39:05.977Z,24.80
2022-07-25T19:44:13.414Z,24.60
2022-07-25T19:49:16.257Z,24.60
2022-07-25T19:54:18.791Z,24.60
2022-07-25T19:59:21.452Z,24.60
2022-07-25T20:04:24.181Z,24.70
2022-07-25T20:09:26.763Z,24.90
2022-07-25T20:14:30.093Z,24.70
2022-07-25T20:19:32.512Z,24.90
2022-07-25T20:24:35.270Z,25.00
2022-07-25T20:29:38.088Z,25.20
2022-07-25T20:34:40.921Z,24.80
2022-07-25T20:39:43.350Z,24.80
2022-07-25T20:44:45.973Z,24.50
2022-07-25T20:49:48.814Z,24.70
2022-07-25T20:54:51.290Z,24.60
2022-07-25T20:59:53.908Z,24.40
2022-07-25T21:04:56.296Z,24.60
2022-07-25T21:09:59.126Z,24.80
2022-07-25T21:15:01.625Z,23.90
2022-07-25T21:20:05.429Z,23.90
2022-07-25T21:25:09.416Z,23.60
2022-07-25T21:30:12.958Z,23.70
2022-07-25T21:35:26.753Z,23.80
2022-07-25T21:40:29.372Z,23.80
2022-07-25T21:45:32.471Z,23.40
2022-07-25T21:50:39.778Z,23.30
2022-07-25T21:55:46.345Z,23.40
2022-07-25T22:00:51.907Z,23.50
2022-07-25T22:05:54.509Z,23.60
2022-07-25T22:10:57.805Z,23.40
2022-07-25T22:16:01.299Z,23.40
2022-07-25T22:21:03.891Z,23.20
2022-07-25T22:26:06.332Z,23.10
2022-07-25T22:31:08.973Z,23.20
2022-07-25T22:36:11.513Z,23.00
2022-07-25T22:41:13.993Z,23.10
2022-07-25T22:46:16.728Z,23.20
2022-07-25T22:51:19.252Z,23.10
2022-07-25T22:56:22.143Z,23.10
2022-07-25T23:01:25.036Z,23.10
2022-07-25T23:06:27.368Z,23.20
2022-07-25T23:11:29.766Z,23.00
2022-07-25T23:16:32.258Z,22.90
2022-07-25T23:21:35.026Z,23.20
2022-07-25T23:26:37.518Z,23.10
2022-07-25T23:31:40.247Z,22.90
2022-07-25T23:36:42.780Z,22.90
2022-07-25T23:41:45.351Z,23.00
2022-07-25T23:46:48.250Z,22.90
2022-07-25T23:51:51.388Z,23.00
2022-07-25T23:56:54.183Z,22.80
